Time;durP1;ratioP1;P1;durP2;ratioP2;P2;SDS_P1;SDS_P2;PMS_P1;PMS_P2;Temp;Humidity;BMP_temperature;BMP_pressure;BME280_temperature;BME280_humidity;BME280_pressure;Samples;Min_cycle;Max_cycle;Signal;HPM_P1;HPM_P2
2022/11/19 00:01:12;;;;;;;14.20;8.80;;;;;;;6.02;100.00;100418.75;4986234;28;20457;-81
2022/11/19 00:03:39;;;;;;;13.25;8.43;;;;;;;6.05;100.00;100418.50;4969136;28;20117;-80
2022/11/19 00:06:16;;;;;;;14.77;8.60;;;;;;;6.10;100.00;100423.22;4981315;28;20045;-82
2022/11/19 00:08:43;;;;;;;13.57;7.88;;;;;;;5.95;100.00;100415.06;4970429;28;20074;-79
2022/11/19 00:11:11;;;;;;;13.75;7.88;;;;;;;6.00;100.00;100420.66;4976003;28;20049;-82
2022/11/19 00:13:38;;;;;;;14.55;7.95;;;;;;;5.93;100.00;100420.34;4989834;28;20125;-79
2022/11/19 00:16:12;;;;;;;14.48;8.20;;;;;;;5.85;100.00;100415.88;4980293;28;20092;-79
2022/11/19 00:18:38;;;;;;;16.70;7.80;;;;;;;5.84;100.00;100416.03;4969476;28;20118;-79
2022/11/19 00:21:10;;;;;;;15.55;8.45;;;;;;;5.84;100.00;100423.75;4985849;28;20062;-79
2022/11/19 00:23:36;;;;;;;13.30;8.60;;;;;;;5.79;100.00;100420.75;4984975;28;20382;-78
2022/11/19 00:26:13;;;;;;;13.93;8.38;;;;;;;5.80;100.00;100414.66;4971160;28;20038;-79
2022/11/19 00:28:39;;;;;;;15.43;9.07;;;;;;;5.74;100.00;100412.63;4975078;28;20034;-79
2022/11/19 00:31:07;;;;;;;15.20;9.45;;;;;;;5.60;100.00;100419.78;4973730;28;20097;-79
2022/11/19 00:33:33;;;;;;;17.67;8.98;;;;;;;5.60;100.00;100422.34;4986692;28;20446;-83
2022/11/19 00:36:00;;;;;;;15.23;8.13;;;;;;;5.51;100.00;100419.75;4966729;28;20522;-83
2022/11/19 00:38:26;;;;;;;20.73;8.88;;;;;;;5.45;100.00;100414.19;4986850;28;20022;-80
2022/11/19 00:40:52;;;;;;;15.43;9.32;;;;;;;5.49;100.00;100427.59;4975535;28;20042;-82
2022/11/19 00:46:02;;;;;;;15.95;8.63;;;;;;;5.51;100.00;100424.91;5003538;28;20038;-81
2022/11/19 00:48:28;;;;;;;14.27;9.40;;;;;;;5.44;100.00;100427.19;4971713;28;20039;-80
2022/11/19 00:50:53;;;;;;;18.40;8.85;;;;;;;5.44;100.00;100428.00;4970860;28;20439;-80
2022/11/19 00:53:19;;;;;;;15.23;9.23;;;;;;;5.37;100.00;100429.47;4972958;28;20027;-79
2022/11/19 00:55:44;;;;;;;14.13;8.70;;;;;;;5.36;100.00;100427.03;4975513;28;20049;-80
2022/11/19 00:58:10;;;;;;;19.35;8.60;;;;;;;5.40;100.00;100430.97;4973030;28;20090;-79
2022/11/19 01:00:35;;;;;;;16.05;9.50;;;;;;;5.42;100.00;100440.16;4972481;28;20723;-77
2022/11/19 01:03:00;;;;;;;14.57;8.27;;;;;;;5.43;100.00;100451.28;4977629;28;20097;-78
2022/11/19 01:05:26;;;;;;;19.45;9.80;;;;;;;5.41;100.00;100445.47;4988925;28;20217;-79
2022/11/19 01:07:52;;;;;;;15.88;9.88;;;;;;;5.34;100.00;100452.88;4974001;28;20089;-79
2022/11/19 01:10:18;;;;;;;21.05;10.75;;;;;;;5.40;100.00;100457.47;4988882;28;20435;-79
2022/11/19 01:15:27;;;;;;;17.63;9.10;;;;;;;5.21;100.00;100460.81;4986368;28;20671;-79
2022/11/19 01:17:53;;;;;;;12.30;8.13;;;;;;;5.26;100.00;100460.44;4969848;28;20487;-80
2022/11/19 01:20:18;;;;;;;17.80;9.25;;;;;;;5.30;100.00;100459.22;4978598;28;20039;-81
2022/11/19 01:22:45;;;;;;;14.15;8.80;;;;;;;5.26;100.00;100457.84;4990673;28;20049;-81
2022/11/19 01:25:11;;;;;;;16.08;9.43;;;;;;;5.33;100.00;100463.28;4987707;28;20098;-80
2022/11/19 01:27:36;;;;;;;14.75;9.23;;;;;;;5.22;100.00;100462.44;4993715;28;20117;-80
2022/11/19 01:30:02;;;;;;;15.45;9.35;;;;;;;5.20;100.00;100466.09;4980416;28;20045;-80
2022/11/19 01:32:28;;;;;;;13.82;9.10;;;;;;;5.14;100.00;100464.03;4971659;28;20412;-80
2022/11/19 01:34:53;;;;;;;15.20;9.07;;;;;;;5.07;100.00;100461.16;4980045;28;20044;-79
2022/11/19 01:37:19;;;;;;;15.80;8.07;;;;;;;5.11;100.00;100469.44;4974642;28;20039;-79
2022/11/19 01:39:44;;;;;;;15.88;8.70;;;;;;;5.11;100.00;100466.88;4978048;28;20027;-80
2022/11/19 01:42:48;;;;;;;15.73;8.70;;;;;;;5.03;100.00;100468.31;4970488;28;20069;-79
2022/11/19 01:45:05;;;;;;;14.32;8.45;;;;;;;5.01;100.00;100471.94;4989993;28;20065;-78
2022/11/19 01:47:31;;;;;;;16.27;8.55;;;;;;;4.96;100.00;100474.91;4977986;28;20062;-79
2022/11/19 01:49:57;;;;;;;13.00;8.07;;;;;;;4.94;100.00;100484.50;4982474;28;20089;-78
2022/11/19 01:52:22;;;;;;;16.35;8.65;;;;;;;4.81;100.00;100481.31;4954649;28;20041;-79
2022/11/19 01:54:52;;;;;;;13.38;7.75;;;;;;;4.72;100.00;100482.88;4976508;28;20052;-79
2022/11/19 01:57:18;;;;;;;14.90;8.50;;;;;;;4.71;100.00;100483.81;4970860;28;20041;-80
2022/11/19 01:59:49;;;;;;;11.07;7.38;;;;;;;4.70;100.00;100491.66;4975441;28;20769;-79
2022/11/19 02:02:16;;;;;;;15.00;7.53;;;;;;;4.56;100.00;100491.03;4968460;28;20034;-78
2022/11/19 02:04:42;;;;;;;13.95;8.07;;;;;;;4.53;100.00;100495.59;4977948;28;20030;-80
2022/11/19 02:07:09;;;;;;;14.82;8.25;;;;;;;4.61;100.00;100500.91;4972221;28;20126;-79
2022/11/19 02:09:34;;;;;;;13.00;8.88;;;;;;;4.60;100.00;100499.28;4975401;28;20026;-79
2022/11/19 02:12:25;;;;;;;16.17;9.35;;;;;;;4.59;100.00;100508.72;4993071;28;20049;-79
2022/11/19 02:15:22;;;;;;;17.67;9.13;;;;;;;4.57;100.00;100502.91;4989514;28;20038;-80
2022/11/19 02:17:50;;;;;;;17.08;9.25;;;;;;;4.54;100.00;100512.59;4977538;28;20042;-79
2022/11/19 02:20:30;;;;;;;17.50;10.70;;;;;;;4.44;100.00;100512.53;4975466;28;20034;-82
2022/11/19 02:23:14;;;;;;;18.88;10.88;;;;;;;4.33;100.00;100520.28;4988592;28;20089;-79
2022/11/19 02:25:50;;;;;;;17.23;9.77;;;;;;;4.38;100.00;100515.59;4985665;28;20134;-82
2022/11/19 02:28:51;;;;;;;15.57;9.82;;;;;;;4.42;100.00;100515.22;4992506;28;22045;-79
2022/11/19 02:31:27;;;;;;;18.00;9.45;;;;;;;4.47;100.00;100514.88;4950484;28;20038;-78
2022/11/19 02:34:04;;;;;;;13.82;9.05;;;;;;;4.36;100.00;100522.63;4993130;28;20030;-78
2022/11/19 02:36:39;;;;;;;18.05;10.52;;;;;;;4.38;100.00;100523.31;4973628;28;20046;-80
2022/11/19 02:39:20;;;;;;;19.15;10.85;;;;;;;4.24;100.00;100526.97;4972299;28;20044;-79
2022/11/19 02:41:52;;;;;;;21.30;10.85;;;;;;;4.32;100.00;100526.38;4973577;28;20042;-77
2022/11/19 02:47:25;;;;;;;21.17;11.50;;;;;;;4.17;100.00;100530.97;4991273;28;20057;-80
2022/11/19 02:49:55;;;;;;;20.83;11.43;;;;;;;3.95;100.00;100534.38;4980549;28;20478;-78
2022/11/19 02:52:21;;;;;;;18.67;10.95;;;;;;;3.89;100.00;100528.78;4972217;28;20038;-80
2022/11/19 02:54:46;;;;;;;22.02;11.35;;;;;;;4.02;100.00;100528.66;4991167;28;20045;-79
2022/11/19 02:57:12;;;;;;;22.50;12.35;;;;;;;3.98;100.00;100524.69;4987407;28;20046;-77
2022/11/19 03:05:50;;;;;;;23.95;12.35;;;;;;;3.96;100.00;100534.28;4976549;28;20050;-78
2022/11/19 03:08:17;;;;;;;24.55;12.38;;;;;;;3.82;100.00;100548.16;4971352;28;20439;-77
2022/11/19 03:11:03;;;;;;;24.13;12.30;;;;;;;3.82;100.00;100543.00;4973704;28;20042;-77
2022/11/19 03:17:24;;;;;;;25.23;12.82;;;;;;;3.67;100.00;100537.34;4994337;28;20069;-78
2022/11/19 03:20:01;;;;;;;26.70;14.13;;;;;;;3.58;100.00;100547.47;4934928;28;20062;-78
2022/11/19 03:22:34;;;;;;;27.52;13.10;;;;;;;3.44;100.00;100540.81;4981045;28;20038;-81
2022/11/19 03:25:06;;;;;;;28.30;13.90;;;;;;;3.48;100.00;100539.66;4994767;28;20036;-78
2022/11/19 03:27:38;;;;;;;29.13;13.82;;;;;;;3.43;100.00;100542.59;4978403;28;20041;-79
2022/11/19 03:30:05;;;;;;;31.00;14.52;;;;;;;3.39;100.00;100548.03;4970266;28;20121;-78
2022/11/19 03:32:43;;;;;;;28.73;14.95;;;;;;;3.37;100.00;100548.19;4973928;28;20141;-78
2022/11/19 03:35:20;;;;;;;29.00;16.02;;;;;;;3.39;100.00;100546.31;4979507;28;20034;-82
2022/11/19 03:37:50;;;;;;;30.00;15.65;;;;;;;3.39;100.00;100548.88;4975315;28;20046;-79
2022/11/19 03:40:18;;;;;;;31.58;16.15;;;;;;;3.44;100.00;100551.88;4988909;28;20041;-79
2022/11/19 03:42:46;;;;;;;29.02;14.95;;;;;;;3.42;100.00;100553.75;4968209;28;20125;-78
2022/11/19 03:45:23;;;;;;;28.95;14.93;;;;;;;3.33;100.00;100551.88;4993774;28;20163;-79
2022/11/19 03:47:50;;;;;;;32.67;16.15;;;;;;;3.40;100.00;100552.25;4973498;28;20038;-79
2022/11/19 03:50:27;;;;;;;30.52;15.77;;;;;;;3.41;100.00;100556.44;4987410;28;20105;-79
2022/11/19 03:52:54;;;;;;;28.98;14.45;;;;;;;3.39;100.00;100565.97;4995004;28;20125;-78
2022/11/19 03:55:28;;;;;;;28.50;15.43;;;;;;;3.37;100.00;100549.91;4973711;28;20035;-78
2022/11/19 03:58:03;;;;;;;34.05;16.77;;;;;;;3.34;100.00;100562.97;4989105;28;20749;-79
2022/11/19 04:00:29;;;;;;;37.63;17.85;;;;;;;3.15;100.00;100555.84;4988188;28;20092;-80
2022/11/19 04:02:55;;;;;;;34.95;16.85;;;;;;;3.09;100.00;100563.03;4979519;28;20041;-80
2022/11/19 04:05:21;;;;;;;31.95;15.95;;;;;;;3.17;100.00;100562.47;4983847;28;20050;-80
2022/11/19 04:07:46;;;;;;;34.03;16.30;;;;;;;3.12;100.00;100564.53;4991648;28;20044;-79
2022/11/19 04:10:12;;;;;;;33.60;16.20;;;;;;;3.17;100.00;100569.34;4984203;28;20533;-79
2022/11/19 04:12:37;;;;;;;29.88;15.40;;;;;;;3.24;100.00;100563.66;4993016;28;20514;-79
2022/11/19 04:15:03;;;;;;;33.92;14.43;;;;;;;3.25;100.00;100569.59;4989559;28;20475;-78
2022/11/19 04:17:31;;;;;;;32.08;16.00;;;;;;;3.23;100.00;100574.81;4975172;28;20474;-78
2022/11/19 04:19:57;;;;;;;32.83;16.95;;;;;;;3.24;100.00;100575.63;4993451;28;20030;-79
2022/11/19 04:22:22;;;;;;;38.17;18.42;;;;;;;3.24;100.00;100580.75;4966997;28;20374;-78
2022/11/19 04:24:48;;;;;;;37.25;18.52;;;;;;;3.20;100.00;100587.03;4974384;28;20030;-83
2022/11/19 04:27:13;;;;;;;39.65;18.08;;;;;;;3.19;100.00;100583.66;4987780;28;20031;-79
2022/11/19 04:29:39;;;;;;;44.75;18.80;;;;;;;3.11;100.00;100584.25;4975199;28;20116;-77
2022/11/19 04:32:04;;;;;;;35.50;17.80;;;;;;;3.06;100.00;100588.06;4989285;28;20073;-78
2022/11/19 04:34:30;;;;;;;37.95;18.75;;;;;;;3.15;100.00;100576.34;4957760;28;20037;-78
2022/11/19 04:36:55;;;;;;;36.10;18.42;;;;;;;3.10;100.00;100579.22;4978412;28;20076;-80
2022/11/19 04:39:21;;;;;;;39.90;18.10;;;;;;;3.07;100.00;100580.28;4974587;28;20034;-80
2022/11/19 04:41:46;;;;;;;40.17;17.90;;;;;;;3.12;100.00;100585.84;4974628;28;20043;-81
2022/11/19 04:44:11;;;;;;;35.25;17.33;;;;;;;3.09;100.00;100587.84;4972778;28;20034;-77
2022/11/19 04:46:37;;;;;;;43.17;20.15;;;;;;;2.98;100.00;100593.75;4977472;28;20407;-79
2022/11/19 04:49:02;;;;;;;40.22;19.10;;;;;;;2.97;100.00;100589.53;4972955;28;20038;-78
2022/11/19 04:51:28;;;;;;;40.38;18.15;;;;;;;2.99;100.00;100587.69;4978155;28;20519;-79
2022/11/19 04:53:54;;;;;;;45.83;20.30;;;;;;;2.99;100.00;100595.38;4971824;28;20042;-78
2022/11/19 04:56:20;;;;;;;42.72;19.77;;;;;;;2.95;100.00;100600.84;4964404;28;20035;-80
2022/11/19 04:58:45;;;;;;;39.90;18.35;;;;;;;2.95;100.00;100603.41;4981673;28;20479;-82
2022/11/19 05:01:11;;;;;;;39.45;18.92;;;;;;;3.02;100.00;100613.09;4978742;28;20039;-80
2022/11/19 05:03:36;;;;;;;40.40;17.30;;;;;;;2.91;99.96;100618.16;4978339;28;20030;-81
2022/11/19 05:06:02;;;;;;;38.67;18.08;;;;;;;2.93;100.00;100622.25;4979834;28;20686;-79
2022/11/19 05:08:27;;;;;;;41.97;18.90;;;;;;;2.90;100.00;100619.09;4982662;28;20026;-79
2022/11/19 05:10:53;;;;;;;40.05;19.58;;;;;;;2.90;100.00;100619.94;4971603;28;20496;-81
2022/11/19 05:13:18;;;;;;;45.78;19.58;;;;;;;2.90;100.00;100622.47;4982842;28;20034;-79
2022/11/19 05:15:44;;;;;;;41.50;20.15;;;;;;;2.89;100.00;100630.28;4982513;28;20053;-79
2022/11/19 05:18:11;;;;;;;43.40;18.90;;;;;;;2.81;100.00;100635.94;4994281;28;20046;-79
2022/11/19 05:20:37;;;;;;;41.90;18.98;;;;;;;2.78;100.00;100625.91;4993526;28;20030;-79
2022/11/19 05:23:02;;;;;;;44.00;20.13;;;;;;;2.80;100.00;100621.50;4978618;28;20038;-80
2022/11/19 05:25:28;;;;;;;45.38;19.30;;;;;;;2.84;99.71;100616.97;4991293;28;20107;-79
2022/11/19 05:27:53;;;;;;;45.15;19.60;;;;;;;2.79;100.00;100626.72;4983563;28;20461;-82
2022/11/19 05:30:25;;;;;;;44.42;20.60;;;;;;;2.78;100.00;100632.78;4980786;28;20041;-79
2022/11/19 05:32:50;;;;;;;43.70;19.98;;;;;;;2.75;100.00;100630.44;4979627;28;20087;-78
2022/11/19 05:35:16;;;;;;;47.55;20.02;;;;;;;2.78;100.00;100636.16;4982642;28;20038;-79
2022/11/19 05:37:41;;;;;;;47.22;20.00;;;;;;;2.81;100.00;100627.47;4978282;28;20043;-82
2022/11/19 05:40:07;;;;;;;44.78;20.58;;;;;;;2.76;100.00;100629.53;4979301;28;20030;-80
2022/11/19 05:42:32;;;;;;;45.70;20.23;;;;;;;2.75;100.00;100633.00;4994692;28;20062;-80
2022/11/19 05:44:58;;;;;;;45.70;21.95;;;;;;;2.81;100.00;100637.69;4992861;28;20060;-79
2022/11/19 05:47:23;;;;;;;42.67;20.75;;;;;;;2.76;100.00;100639.75;4983542;28;20038;-79
2022/11/19 05:49:49;;;;;;;53.53;23.50;;;;;;;2.76;100.00;100642.31;4979533;28;20038;-82
2022/11/19 05:52:14;;;;;;;54.28;22.38;;;;;;;2.71;100.00;100651.16;4991930;28;20039;-79
2022/11/19 05:54:40;;;;;;;53.28;23.20;;;;;;;2.79;100.00;100660.84;4980902;28;20038;-78
2022/11/19 05:57:05;;;;;;;50.63;21.38;;;;;;;2.73;100.00;100656.16;4985326;28;20030;-78
2022/11/19 05:59:31;;;;;;;51.83;22.13;;;;;;;2.65;100.00;100661.81;4980767;28;20046;-78
2022/11/19 06:01:57;;;;;;;50.88;22.63;;;;;;;2.65;100.00;100672.06;4976804;28;20042;-79
2022/11/19 06:04:22;;;;;;;47.00;22.60;;;;;;;2.67;100.00;100674.50;4978063;28;20045;-80
2022/11/19 06:06:48;;;;;;;57.85;23.92;;;;;;;2.55;100.00;100670.25;4990658;28;20046;-81
2022/11/19 06:09:13;;;;;;;54.03;23.23;;;;;;;2.51;100.00;100678.16;4970853;28;20053;-79
2022/11/19 06:11:48;;;;;;;50.78;22.95;;;;;;;2.48;100.00;100680.09;4991518;28;20050;-79
2022/11/19 06:14:21;;;;;;;49.60;22.02;;;;;;;2.50;100.00;100680.81;4977048;28;20116;-79
2022/11/19 06:16:47;;;;;;;53.10;23.45;;;;;;;2.46;100.00;100682.75;4985686;28;20042;-79
2022/11/19 06:19:12;;;;;;;50.72;24.38;;;;;;;2.44;100.00;100676.94;4978128;28;20026;-79
2022/11/19 06:21:38;;;;;;;59.55;25.55;;;;;;;2.38;100.00;100674.00;4970414;28;20074;-84
2022/11/19 06:24:04;;;;;;;57.58;23.23;;;;;;;2.37;100.00;100674.91;4980643;28;20068;-81
2022/11/19 06:26:29;;;;;;;54.58;24.17;;;;;;;2.39;100.00;100684.09;4989270;28;20065;-79
2022/11/19 06:28:55;;;;;;;54.55;24.35;;;;;;;2.37;100.00;100674.91;4978793;28;20034;-78
2022/11/19 06:31:21;;;;;;;52.80;24.77;;;;;;;2.30;100.00;100680.44;4994416;28;20398;-81
2022/11/19 06:33:47;;;;;;;49.92;23.63;;;;;;;2.31;100.00;100688.94;4991751;28;20073;-77
2022/11/19 06:36:13;;;;;;;53.65;24.50;;;;;;;2.33;100.00;100694.75;4975705;28;20117;-78
2022/11/19 06:38:38;;;;;;;49.33;24.70;;;;;;;2.27;100.00;100710.53;4979375;28;20073;-80
2022/11/19 06:41:04;;;;;;;48.97;23.13;;;;;;;2.26;100.00;100703.78;4972176;28;20034;-80
2022/11/19 06:43:29;;;;;;;51.20;23.95;;;;;;;2.24;100.00;100709.03;4977018;28;20495;-79
2022/11/19 06:46:04;;;;;;;49.88;24.65;;;;;;;2.22;100.00;100707.47;4975302;28;20034;-81
2022/11/19 06:48:30;;;;;;;49.22;23.48;;;;;;;2.23;100.00;100715.06;4973411;28;20126;-80
2022/11/19 06:50:55;;;;;;;51.58;25.13;;;;;;;2.29;100.00;100718.94;4974706;28;20030;-84
2022/11/19 06:53:21;;;;;;;51.80;24.90;;;;;;;2.30;100.00;100728.25;4991355;28;20038;-79
2022/11/19 06:55:46;;;;;;;48.75;24.02;;;;;;;2.40;100.00;100720.78;4989124;28;20039;-82
2022/11/19 06:58:13;;;;;;;47.38;22.83;;;;;;;2.37;100.00;100721.78;4977166;28;20439;-83
2022/11/19 07:00:39;;;;;;;49.95;23.80;;;;;;;2.33;99.44;100733.16;4973844;28;20396;-77
2022/11/19 07:03:04;;;;;;;48.85;23.77;;;;;;;2.22;99.54;100741.56;5003727;28;20039;-80
2022/11/19 07:05:29;;;;;;;49.58;23.17;;;;;;;2.21;100.00;100744.22;4991174;28;20124;-81
2022/11/19 07:07:55;;;;;;;48.03;22.88;;;;;;;2.31;100.00;100746.03;4978145;28;20046;-80
2022/11/19 07:10:20;;;;;;;50.20;23.98;;;;;;;2.24;99.47;100741.44;4992849;28;20041;-80
2022/11/19 07:12:46;;;;;;;54.35;23.70;;;;;;;2.28;99.72;100741.16;4972657;28;20049;-80
2022/11/19 07:15:11;;;;;;;53.38;23.85;;;;;;;2.28;100.00;100743.72;4978242;28;20510;-77
2022/11/19 07:17:37;;;;;;;51.53;22.38;;;;;;;2.31;100.00;100747.78;4990461;28;20523;-80
2022/11/19 07:20:06;;;;;;;46.92;22.70;;;;;;;2.40;99.03;100744.63;4980386;28;20041;-83
2022/11/19 07:22:31;;;;;;;50.17;22.45;;;;;;;2.33;98.74;100751.06;4992009;28;20070;-84
2022/11/19 07:24:57;;;;;;;50.30;23.77;;;;;;;2.30;98.81;100751.28;5009033;28;20073;-79
2022/11/19 07:27:22;;;;;;;51.85;24.05;;;;;;;2.30;99.07;100761.53;4977788;28;20073;-83
2022/11/19 07:29:48;;;;;;;56.65;23.95;;;;;;;2.27;98.17;100764.28;4995564;28;20026;-79
2022/11/19 07:32:13;;;;;;;47.42;22.88;;;;;;;2.23;97.21;100760.31;4990429;28;20510;-81
2022/11/19 07:34:39;;;;;;;49.42;22.38;;;;;;;2.22;97.20;100766.31;4988669;28;20391;-80
2022/11/19 07:37:04;;;;;;;51.95;24.35;;;;;;;2.23;97.76;100765.41;4995666;28;20092;-80
2022/11/19 07:39:29;;;;;;;54.97;23.92;;;;;;;2.18;98.01;100770.00;4977841;28;20041;-80
2022/11/19 07:44:39;;;;;;;63.92;27.48;;;;;;;2.16;98.84;100782.09;4986698;28;20539;-81
2022/11/19 07:47:08;;;;;;;48.60;23.45;;;;;;;2.14;97.37;100784.75;4990862;28;20129;-81
2022/11/19 07:49:33;;;;;;;46.28;23.45;;;;;;;2.12;97.83;100794.25;4973470;28;20057;-80
2022/11/19 07:51:59;;;;;;;54.03;24.02;;;;;;;2.18;98.33;100795.59;4977321;28;20050;-80
2022/11/19 07:54:24;;;;;;;52.83;24.67;;;;;;;2.17;99.06;100789.66;4990757;28;20037;-78
2022/11/19 07:56:50;;;;;;;58.17;25.77;;;;;;;2.07;97.87;100788.63;4975269;28;20046;-77
2022/11/19 07:59:16;;;;;;;51.20;25.02;;;;;;;2.22;97.68;100785.03;4995431;28;20121;-80
2022/11/19 08:01:42;;;;;;;55.83;25.98;;;;;;;2.14;98.35;100792.41;4980956;28;20496;-81
2022/11/19 08:04:07;;;;;;;51.55;24.35;;;;;;;2.03;98.06;100803.34;4975689;28;20045;-78
2022/11/19 08:06:33;;;;;;;54.78;24.85;;;;;;;2.01;97.11;100812.88;4974544;28;20085;-80
2022/11/19 08:09:01;;;;;;;56.22;25.58;;;;;;;2.00;97.05;100807.84;4973091;28;20046;-80
2022/11/19 08:11:26;;;;;;;50.58;23.88;;;;;;;2.04;98.26;100809.31;4990466;28;20045;-83
2022/11/19 08:13:52;;;;;;;54.17;24.77;;;;;;;2.08;97.81;100811.56;4980545;28;20030;-81
2022/11/19 08:19:11;;;;;;;61.58;26.15;;;;;;;2.07;98.79;100820.16;5000540;28;20057;-80
2022/11/19 08:21:43;;;;;;;57.55;23.88;;;;;;;2.10;98.56;100819.13;4978441;28;20038;-81
2022/11/19 08:24:09;;;;;;;58.13;24.85;;;;;;;2.11;98.21;100823.31;4993821;28;20109;-79
2022/11/19 08:26:36;;;;;;;57.83;24.83;;;;;;;2.08;98.08;100824.34;4974605;28;20495;-78
2022/11/19 08:29:02;;;;;;;51.03;24.60;;;;;;;2.05;98.28;100826.28;4970150;28;20799;-80
2022/11/19 08:31:28;;;;;;;62.03;26.63;;;;;;;2.08;98.25;100821.78;4975367;28;20038;-80
2022/11/19 08:34:05;;;;;;;62.53;26.88;;;;;;;2.14;97.17;100826.50;4977417;28;20121;-80
2022/11/19 08:36:31;;;;;;;50.45;22.40;;;;;;;2.16;97.31;100816.16;4980202;28;20138;-80
2022/11/19 08:38:59;;;;;;;53.38;24.45;;;;;;;2.20;97.63;100827.03;4990085;28;20069;-81
2022/11/19 08:44:16;;;;;;;52.83;23.98;;;;;;;2.14;97.52;100834.16;4995214;28;20558;-78
2022/11/19 08:46:42;;;;;;;53.10;23.52;;;;;;;2.00;96.70;100828.31;4982263;28;20043;-79
2022/11/19 08:49:10;;;;;;;56.55;24.50;;;;;;;1.99;96.06;100835.16;4980881;28;20030;-80
2022/11/19 08:51:36;;;;;;;50.50;22.98;;;;;;;2.00;96.87;100838.53;4994767;28;20404;-79
2022/11/19 08:54:02;;;;;;;52.13;22.15;;;;;;;1.95;95.02;100841.41;4975387;28;20583;-81
2022/11/19 08:56:28;;;;;;;54.65;23.58;;;;;;;1.96;96.06;100850.75;4989554;28;20031;-77
2022/11/19 08:58:53;;;;;;;54.40;22.77;;;;;;;1.95;95.85;100849.91;4988873;28;20414;-79
2022/11/19 09:01:20;;;;;;;57.15;23.13;;;;;;;1.98;95.50;100854.00;4975870;28;20034;-80
2022/11/19 09:03:45;;;;;;;48.35;22.35;;;;;;;1.95;96.17;100849.91;4997607;28;20038;-78
2022/11/19 09:06:11;;;;;;;49.65;22.00;;;;;;;2.01;95.52;100855.53;4996551;28;20050;-78
2022/11/19 09:08:36;;;;;;;56.72;23.58;;;;;;;2.00;95.25;100852.19;4995188;28;20034;-80
2022/11/19 09:11:06;;;;;;;52.63;22.10;;;;;;;2.01;95.71;100858.91;4976692;28;20046;-77
2022/11/19 09:13:31;;;;;;;52.72;22.45;;;;;;;2.01;94.68;100861.47;4979936;28;20033;-77
2022/11/19 09:15:57;;;;;;;48.10;22.42;;;;;;;1.90;93.97;100871.56;4988329;28;21334;-77
2022/11/19 09:18:22;;;;;;;50.15;22.38;;;;;;;2.04;94.47;100861.28;4995149;28;20033;-78
2022/11/19 09:20:55;;;;;;;47.92;22.05;;;;;;;2.00;93.99;100859.00;4987499;28;20045;-80
2022/11/19 09:23:25;;;;;;;45.72;20.90;;;;;;;2.04;94.61;100863.03;4995690;28;20034;-78
2022/11/19 09:26:03;;;;;;;46.15;21.17;;;;;;;2.10;95.45;100868.56;4971136;28;20065;-78
2022/11/19 09:28:29;;;;;;;50.70;22.02;;;;;;;2.05;94.09;100869.78;4978020;28;20060;-79
2022/11/19 09:30:56;;;;;;;46.85;21.75;;;;;;;2.06;94.30;100869.69;4981189;28;20046;-79
2022/11/19 09:33:22;;;;;;;50.60;20.95;;;;;;;2.12;95.01;100869.28;4983224;28;20502;-80
2022/11/19 09:35:48;;;;;;;45.80;20.27;;;;;;;2.10;93.20;100883.91;4974987;28;20043;-78
2022/11/19 09:38:13;;;;;;;43.20;20.40;;;;;;;2.06;92.33;100882.47;4977664;28;20479;-80
2022/11/19 09:40:43;;;;;;;45.35;20.98;;;;;;;2.00;91.70;100889.69;5000297;28;20046;-80
2022/11/19 09:43:33;;;;;;;49.28;21.80;;;;;;;2.02;91.88;100888.69;4978253;28;20128;-77
2022/11/19 09:46:23;;;;;;;49.70;20.38;;;;;;;1.92;91.25;100892.75;4995446;28;20051;-76
2022/11/19 09:48:51;;;;;;;46.28;20.40;;;;;;;1.96;91.73;100901.91;4976758;28;20038;-80
2022/11/19 09:51:22;;;;;;;47.88;21.33;;;;;;;2.02;92.79;100903.25;4979779;28;20061;-79
2022/11/19 09:53:54;;;;;;;48.22;20.83;;;;;;;1.98;91.98;100907.72;5011553;28;20475;-79
2022/11/19 09:56:46;;;;;;;44.38;20.25;;;;;;;2.05;92.77;100897.91;4993210;28;20034;-78
2022/11/19 09:59:39;;;;;;;45.00;19.90;;;;;;;2.10;92.91;100894.13;4962747;28;20043;-79
2022/11/19 10:02:15;;;;;;;;;;;;;;;2.13;93.56;100899.06;4973365;28;20050;-80
2022/11/19 10:04:41;;;;;;;47.30;20.50;;;;;;;2.17;93.67;100899.69;4978412;28;19914;-79
2022/11/19 10:07:14;;;;;;;45.03;20.50;;;;;;;2.19;93.03;100902.16;4981088;28;20035;-79
2022/11/19 10:09:59;;;;;;;42.80;19.67;;;;;;;2.25;93.03;100907.69;4991523;28;20086;-78
2022/11/19 10:12:47;;;;;;;42.70;20.02;;;;;;;2.23;91.30;100912.09;4995020;28;20081;-78
2022/11/19 10:15:31;;;;;;;40.40;19.75;;;;;;;2.26;90.80;100908.50;4992117;28;20835;-77
2022/11/19 10:18:18;;;;;;;49.30;20.48;;;;;;;2.06;90.97;100925.97;4979303;28;20131;-77
2022/11/19 10:20:57;;;;;;;42.78;19.23;;;;;;;2.06;90.52;100915.72;4984349;28;20049;-79
2022/11/19 10:23:40;;;;;;;43.00;19.80;;;;;;;2.14;92.17;100917.78;4959072;28;20058;-78
2022/11/19 10:26:13;;;;;;;48.10;20.83;;;;;;;2.19;92.34;100917.50;4990497;28;20555;-79
2022/11/19 10:28:42;;;;;;;45.30;22.23;;;;;;;2.27;92.24;100922.94;4982844;28;20042;-79
2022/11/19 10:31:19;;;;;;;47.22;19.58;;;;;;;2.18;91.59;100928.66;4995484;28;20046;-79
2022/11/19 10:33:56;;;;;;;46.95;21.48;;;;;;;2.19;92.53;100928.56;4995976;28;20038;-82
2022/11/19 10:36:29;;;;;;;43.05;19.40;;;;;;;2.19;91.14;100940.53;4987756;28;20491;-78
2022/11/19 10:39:06;;;;;;;45.70;19.17;;;;;;;2.22;91.02;100937.75;4992397;28;20554;-78
2022/11/19 10:41:44;;;;;;;42.60;19.42;;;;;;;2.08;91.19;100936.91;4973599;28;20031;-78
2022/11/19 10:44:42;;;;;;;46.35;20.27;;;;;;;2.05;91.11;100936.28;4989027;28;20045;-80
2022/11/19 10:47:29;;;;;;;45.55;20.00;;;;;;;1.94;91.71;100936.94;4989955;28;20630;-77
2022/11/19 10:49:55;;;;;;;44.80;19.88;;;;;;;1.94;91.83;100937.78;4990582;28;20042;-77
2022/11/19 10:52:24;;;;;;;46.97;20.67;;;;;;;1.82;92.54;100936.00;4995222;28;20396;-79
2022/11/19 10:54:54;;;;;;;44.17;20.65;;;;;;;1.82;92.67;100935.19;4974729;28;20031;-80
2022/11/19 10:57:20;;;;;;;45.30;19.73;;;;;;;1.88;92.41;100927.13;4990868;28;20042;-77
2022/11/19 10:59:49;;;;;;;42.03;19.88;;;;;;;1.88;92.43;100922.00;4976588;28;20041;-78
2022/11/19 11:02:24;;;;;;;48.17;20.88;;;;;;;1.83;93.62;100924.84;4975088;28;20104;-80
2022/11/19 11:05:11;;;;;;;45.15;19.98;;;;;;;1.97;93.75;100925.72;4975654;28;20053;-79
2022/11/19 11:07:58;;;;;;;41.00;19.13;;;;;;;1.99;93.61;100939.22;4991797;28;20042;-81
2022/11/19 11:10:25;;;;;;;44.10;20.05;;;;;;;1.95;94.19;100936.84;4994354;28;20121;-79
2022/11/19 11:15:44;;;;;;;43.63;19.13;;;;;;;2.02;94.05;100929.63;4989968;28;20042;-78
2022/11/19 11:18:11;;;;;;;42.88;19.95;;;;;;;2.08;93.49;100936.91;4973136;28;20035;-79
2022/11/19 11:20:43;;;;;;;40.35;20.13;;;;;;;2.03;93.86;100935.56;4975592;28;20141;-79
2022/11/19 11:23:14;;;;;;;45.70;20.45;;;;;;;2.01;93.98;100930.53;4979672;28;20049;-82
2022/11/19 11:26:07;;;;;;;40.92;19.15;;;;;;;2.01;94.62;100933.09;4989563;28;20551;-79
2022/11/19 11:28:33;;;;;;;43.33;20.90;;;;;;;2.05;94.30;100937.09;4977006;28;20040;-80
2022/11/19 11:31:48;;;;;;;40.17;19.50;;;;;;;2.10;94.59;100932.50;4977992;28;20054;-79
2022/11/19 11:34:25;;;;;;;40.03;18.67;;;;;;;2.12;93.94;100923.00;4948280;28;20038;-79
2022/11/19 11:36:52;;;;;;;41.00;19.75;;;;;;;2.16;94.52;100926.19;4996413;28;20047;-79
2022/11/19 11:39:30;;;;;;;39.92;19.10;;;;;;;2.16;93.91;100923.63;4997205;28;20486;-77
2022/11/19 11:41:57;;;;;;;38.90;18.15;;;;;;;2.24;93.09;100918.00;4973653;28;20414;-79
2022/11/19 11:44:26;;;;;;;38.40;18.58;;;;;;;2.02;93.31;100927.06;4991715;28;20035;-78
2022/11/19 11:46:54;;;;;;;43.95;19.10;;;;;;;1.78;94.80;100926.88;4975000;28;20296;-77
2022/11/19 11:49:31;;;;;;;40.92;19.02;;;;;;;1.86;95.53;100921.28;4978671;28;20034;-80
2022/11/19 11:52:02;;;;;;;40.33;19.55;;;;;;;1.98;95.81;100917.97;4978624;28;20125;-79
2022/11/19 11:54:27;;;;;;;37.03;18.45;;;;;;;2.16;95.77;100930.50;4975913;28;20030;-78